< < Back
Terminal Aerodrome Forecast


Current Version              Previous Versions:   1  2  3  4  5  6  7  8  9  

Terminal Aerodrome Forecast

968
FTUS42 KFFC 312338
TAFPDK
TAF
KPDK 312338Z 0100/0124 06006KT P6SM FEW060
     FM010200 11005KT P6SM SKC
     FM011400 21006KT P6SM FEW035
     FM011700 17010KT P6SM SCT050=

Latest METAR

201
SAUS70 KWBC 010500 RRN
MTRPDK
METAR KPDK 010453Z AUTO 00000KT 10SM CLR 25/19 A2994 RMK AO2 SLP118
T02500194 403390211


USA.gov is the U.S. government's official web portal to all federal, state and local government web resources and services.